sensor_id;sensor_type;location;lat;lon;timestamp;P1;durP1;ratioP1;P2;durP2;ratioP2
77872;SDS011;67068;52.116;4.440;2023-11-19T00:01:22;5.95;;;1.10;;
77872;SDS011;67068;52.116;4.440;2023-11-19T00:03:47;7.10;;;1.67;;
77872;SDS011;67068;52.116;4.440;2023-11-19T00:06:13;6.65;;;1.23;;
77872;SDS011;67068;52.116;4.440;2023-11-19T00:08:38;7.03;;;1.40;;
77872;SDS011;67068;52.116;4.440;2023-11-19T00:11:03;5.50;;;1.17;;
77872;SDS011;67068;52.116;4.440;2023-11-19T00:13:29;4.55;;;1.10;;
77872;SDS011;67068;52.116;4.440;2023-11-19T00:15:54;5.93;;;1.17;;
77872;SDS011;67068;52.116;4.440;2023-11-19T00:18:19;6.97;;;1.20;;
77872;SDS011;67068;52.116;4.440;2023-11-19T00:20:45;4.10;;;1.10;;
77872;SDS011;67068;52.116;4.440;2023-11-19T00:23:10;4.73;;;1.20;;
77872;SDS011;67068;52.116;4.440;2023-11-19T00:25:35;4.10;;;1.03;;
77872;SDS011;67068;52.116;4.440;2023-11-19T00:28:00;4.57;;;1.30;;
77872;SDS011;67068;52.116;4.440;2023-11-19T00:30:26;5.37;;;1.23;;
77872;SDS011;67068;52.116;4.440;2023-11-19T00:32:51;4.77;;;1.00;;
77872;SDS011;67068;52.116;4.440;2023-11-19T00:35:16;5.33;;;1.53;;
77872;SDS011;67068;52.116;4.440;2023-11-19T00:37:41;6.37;;;1.17;;
77872;SDS011;67068;52.116;4.440;2023-11-19T00:40:10;6.10;;;1.25;;
77872;SDS011;67068;52.116;4.440;2023-11-19T00:42:36;5.03;;;1.30;;
77872;SDS011;67068;52.116;4.440;2023-11-19T00:45:01;5.68;;;1.17;;
77872;SDS011;67068;52.116;4.440;2023-11-19T00:47:26;5.20;;;1.10;;
77872;SDS011;67068;52.116;4.440;2023-11-19T00:49:52;5.50;;;1.40;;
77872;SDS011;67068;52.116;4.440;2023-11-19T00:52:17;5.35;;;1.05;;
77872;SDS011;67068;52.116;4.440;2023-11-19T00:54:43;5.30;;;1.10;;
77872;SDS011;67068;52.116;4.440;2023-11-19T00:57:08;5.90;;;1.10;;
77872;SDS011;67068;52.116;4.440;2023-11-19T00:59:33;5.80;;;1.07;;
77872;SDS011;67068;52.116;4.440;2023-11-19T01:01:58;5.90;;;1.57;;
77872;SDS011;67068;52.116;4.440;2023-11-19T01:04:28;5.90;;;1.20;;
77872;SDS011;67068;52.116;4.440;2023-11-19T01:06:53;4.25;;;1.10;;
77872;SDS011;67068;52.116;4.440;2023-11-19T01:09:19;6.00;;;1.60;;
77872;SDS011;67068;52.116;4.440;2023-11-19T01:11:44;3.50;;;1.10;;
77872;SDS011;67068;52.116;4.440;2023-11-19T01:14:10;4.77;;;0.93;;
77872;SDS011;67068;52.116;4.440;2023-11-19T01:16:35;6.67;;;1.07;;
77872;SDS011;67068;52.116;4.440;2023-11-19T01:19:00;5.63;;;1.23;;
77872;SDS011;67068;52.116;4.440;2023-11-19T01:21:29;7.13;;;1.42;;
77872;SDS011;67068;52.116;4.440;2023-11-19T01:23:54;6.13;;;1.42;;
77872;SDS011;67068;52.116;4.440;2023-11-19T01:26:20;7.53;;;1.27;;
77872;SDS011;67068;52.116;4.440;2023-11-19T01:28:45;6.37;;;1.03;;
77872;SDS011;67068;52.116;4.440;2023-11-19T01:31:11;5.25;;;0.90;;
77872;SDS011;67068;52.116;4.440;2023-11-19T01:33:37;6.95;;;1.33;;
77872;SDS011;67068;52.116;4.440;2023-11-19T01:36:03;6.40;;;1.20;;
77872;SDS011;67068;52.116;4.440;2023-11-19T01:38:29;4.65;;;1.10;;
77872;SDS011;67068;52.116;4.440;2023-11-19T01:40:56;5.57;;;0.93;;
77872;SDS011;67068;52.116;4.440;2023-11-19T01:43:37;7.85;;;1.23;;
77872;SDS011;67068;52.116;4.440;2023-11-19T01:46:04;4.95;;;1.10;;
77872;SDS011;67068;52.116;4.440;2023-11-19T01:48:29;7.70;;;1.33;;
77872;SDS011;67068;52.116;4.440;2023-11-19T01:50:55;9.57;;;1.45;;
77872;SDS011;67068;52.116;4.440;2023-11-19T01:53:20;5.60;;;1.23;;
77872;SDS011;67068;52.116;4.440;2023-11-19T01:55:48;7.50;;;1.30;;
77872;SDS011;67068;52.116;4.440;2023-11-19T02:00:39;7.70;;;1.15;;
77872;SDS011;67068;52.116;4.440;2023-11-19T02:03:05;5.63;;;1.20;;
77872;SDS011;67068;52.116;4.440;2023-11-19T02:05:33;7.05;;;1.42;;
77872;SDS011;67068;52.116;4.440;2023-11-19T02:07:58;8.00;;;1.37;;
77872;SDS011;67068;52.116;4.440;2023-11-19T02:10:23;5.45;;;1.10;;
77872;SDS011;67068;52.116;4.440;2023-11-19T02:12:50;6.60;;;1.40;;
77872;SDS011;67068;52.116;4.440;2023-11-19T02:15:16;6.55;;;1.02;;
77872;SDS011;67068;52.116;4.440;2023-11-19T02:17:44;7.25;;;1.63;;
77872;SDS011;67068;52.116;4.440;2023-11-19T02:20:09;5.93;;;1.20;;
77872;SDS011;67068;52.116;4.440;2023-11-19T02:22:36;5.00;;;1.10;;
77872;SDS011;67068;52.116;4.440;2023-11-19T02:25:04;4.18;;;0.93;;
77872;SDS011;67068;52.116;4.440;2023-11-19T02:30:15;7.13;;;1.20;;
77872;SDS011;67068;52.116;4.440;2023-11-19T02:32:41;6.90;;;1.23;;
77872;SDS011;67068;52.116;4.440;2023-11-19T02:35:06;9.57;;;1.65;;
77872;SDS011;67068;52.116;4.440;2023-11-19T02:37:33;7.13;;;1.50;;
77872;SDS011;67068;52.116;4.440;2023-11-19T02:39:58;6.50;;;1.45;;
77872;SDS011;67068;52.116;4.440;2023-11-19T02:42:34;6.25;;;1.10;;
77872;SDS011;67068;52.116;4.440;2023-11-19T02:44:59;6.43;;;1.17;;
77872;SDS011;67068;52.116;4.440;2023-11-19T02:47:24;6.37;;;1.30;;
77872;SDS011;67068;52.116;4.440;2023-11-19T02:49:50;5.47;;;1.20;;
77872;SDS011;67068;52.116;4.440;2023-11-19T02:52:15;7.40;;;1.10;;
77872;SDS011;67068;52.116;4.440;2023-11-19T02:54:40;7.07;;;1.20;;
77872;SDS011;67068;52.116;4.440;2023-11-19T02:57:06;7.28;;;1.50;;
77872;SDS011;67068;52.116;4.440;2023-11-19T02:59:33;6.03;;;1.35;;
77872;SDS011;67068;52.116;4.440;2023-11-19T03:02:04;7.40;;;1.35;;
77872;SDS011;67068;52.116;4.440;2023-11-19T03:04:31;5.00;;;1.15;;
77872;SDS011;67068;52.116;4.440;2023-11-19T03:06:56;9.25;;;1.65;;
77872;SDS011;67068;52.116;4.440;2023-11-19T03:09:23;5.93;;;1.20;;
77872;SDS011;67068;52.116;4.440;2023-11-19T03:11:49;5.28;;;1.15;;
77872;SDS011;67068;52.116;4.440;2023-11-19T03:14:14;6.70;;;1.20;;
77872;SDS011;67068;52.116;4.440;2023-11-19T03:16:40;7.75;;;1.20;;
77872;SDS011;67068;52.116;4.440;2023-11-19T03:19:05;8.83;;;1.20;;
77872;SDS011;67068;52.116;4.440;2023-11-19T03:21:30;7.00;;;1.03;;
77872;SDS011;67068;52.116;4.440;2023-11-19T03:23:56;6.93;;;1.00;;
77872;SDS011;67068;52.116;4.440;2023-11-19T03:26:21;8.05;;;1.48;;
77872;SDS011;67068;52.116;4.440;2023-11-19T03:28:47;8.15;;;1.88;;
77872;SDS011;67068;52.116;4.440;2023-11-19T03:31:12;7.77;;;1.53;;
77872;SDS011;67068;52.116;4.440;2023-11-19T03:33:37;7.13;;;1.27;;
77872;SDS011;67068;52.116;4.440;2023-11-19T03:36:03;9.38;;;1.50;;
77872;SDS011;67068;52.116;4.440;2023-11-19T03:38:28;7.10;;;1.37;;
77872;SDS011;67068;52.116;4.440;2023-11-19T03:40:53;9.47;;;1.30;;
77872;SDS011;67068;52.116;4.440;2023-11-19T03:43:18;6.23;;;1.20;;
77872;SDS011;67068;52.116;4.440;2023-11-19T03:45:44;7.38;;;1.17;;
77872;SDS011;67068;52.116;4.440;2023-11-19T03:48:09;5.38;;;1.08;;
77872;SDS011;67068;52.116;4.440;2023-11-19T03:50:34;8.37;;;1.43;;
77872;SDS011;67068;52.116;4.440;2023-11-19T03:53:00;8.17;;;1.53;;
77872;SDS011;67068;52.116;4.440;2023-11-19T03:55:25;8.33;;;1.30;;
77872;SDS011;67068;52.116;4.440;2023-11-19T03:57:50;7.73;;;1.40;;
77872;SDS011;67068;52.116;4.440;2023-11-19T04:00:15;7.13;;;1.20;;
77872;SDS011;67068;52.116;4.440;2023-11-19T04:02:41;7.93;;;1.63;;
77872;SDS011;67068;52.116;4.440;2023-11-19T04:05:06;8.07;;;1.60;;
77872;SDS011;67068;52.116;4.440;2023-11-19T04:07:32;8.23;;;1.33;;
77872;SDS011;67068;52.116;4.440;2023-11-19T04:09:57;8.68;;;1.55;;
77872;SDS011;67068;52.116;4.440;2023-11-19T04:12:22;6.68;;;1.50;;
77872;SDS011;67068;52.116;4.440;2023-11-19T04:14:48;7.90;;;1.53;;
77872;SDS011;67068;52.116;4.440;2023-11-19T04:17:13;5.20;;;1.10;;
77872;SDS011;67068;52.116;4.440;2023-11-19T04:19:38;7.10;;;1.23;;
77872;SDS011;67068;52.116;4.440;2023-11-19T04:22:06;7.32;;;1.35;;
77872;SDS011;67068;52.116;4.440;2023-11-19T04:24:31;7.87;;;1.50;;
77872;SDS011;67068;52.116;4.440;2023-11-19T04:26:56;5.97;;;1.10;;
77872;SDS011;67068;52.116;4.440;2023-11-19T04:29:22;5.87;;;1.17;;
77872;SDS011;67068;52.116;4.440;2023-11-19T04:31:47;5.97;;;1.33;;
77872;SDS011;67068;52.116;4.440;2023-11-19T04:34:12;7.73;;;1.30;;
77872;SDS011;67068;52.116;4.440;2023-11-19T04:36:38;5.93;;;1.20;;
77872;SDS011;67068;52.116;4.440;2023-11-19T04:39:03;7.60;;;1.55;;
77872;SDS011;67068;52.116;4.440;2023-11-19T04:41:46;5.25;;;1.17;;
77872;SDS011;67068;52.116;4.440;2023-11-19T04:44:13;6.20;;;1.50;;
77872;SDS011;67068;52.116;4.440;2023-11-19T04:46:38;8.13;;;1.40;;
77872;SDS011;67068;52.116;4.440;2023-11-19T04:49:03;7.20;;;1.43;;
77872;SDS011;67068;52.116;4.440;2023-11-19T04:51:29;5.50;;;1.33;;
77872;SDS011;67068;52.116;4.440;2023-11-19T04:53:55;6.47;;;1.37;;
77872;SDS011;67068;52.116;4.440;2023-11-19T04:56:20;6.60;;;1.23;;
77872;SDS011;67068;52.116;4.440;2023-11-19T04:58:47;6.30;;;1.20;;
77872;SDS011;67068;52.116;4.440;2023-11-19T05:01:13;7.33;;;1.40;;
77872;SDS011;67068;52.116;4.440;2023-11-19T05:03:39;7.05;;;1.17;;
77872;SDS011;67068;52.116;4.440;2023-11-19T05:06:05;7.88;;;1.15;;
77872;SDS011;67068;52.116;4.440;2023-11-19T05:08:30;8.60;;;1.48;;
77872;SDS011;67068;52.116;4.440;2023-11-19T05:10:55;8.57;;;1.20;;
77872;SDS011;67068;52.116;4.440;2023-11-19T05:13:22;8.30;;;1.38;;
77872;SDS011;67068;52.116;4.440;2023-11-19T05:15:47;7.23;;;1.30;;
77872;SDS011;67068;52.116;4.440;2023-11-19T05:18:13;7.83;;;1.33;;
77872;SDS011;67068;52.116;4.440;2023-11-19T05:20:38;7.07;;;1.20;;
77872;SDS011;67068;52.116;4.440;2023-11-19T05:23:03;7.50;;;1.43;;
77872;SDS011;67068;52.116;4.440;2023-11-19T05:25:28;6.47;;;1.20;;
77872;SDS011;67068;52.116;4.440;2023-11-19T05:27:53;7.90;;;1.30;;
77872;SDS011;67068;52.116;4.440;2023-11-19T05:30:19;8.73;;;1.87;;
77872;SDS011;67068;52.116;4.440;2023-11-19T05:32:44;7.60;;;1.20;;
77872;SDS011;67068;52.116;4.440;2023-11-19T05:35:10;5.93;;;1.30;;
77872;SDS011;67068;52.116;4.440;2023-11-19T05:37:35;8.43;;;1.23;;
77872;SDS011;67068;52.116;4.440;2023-11-19T05:40:01;4.53;;;1.10;;
77872;SDS011;67068;52.116;4.440;2023-11-19T05:42:28;5.28;;;1.10;;
77872;SDS011;67068;52.116;4.440;2023-11-19T05:44:53;6.37;;;1.40;;
77872;SDS011;67068;52.116;4.440;2023-11-19T05:47:19;5.80;;;1.20;;
77872;SDS011;67068;52.116;4.440;2023-11-19T05:49:44;7.73;;;1.33;;
77872;SDS011;67068;52.116;4.440;2023-11-19T05:52:09;8.63;;;1.33;;
77872;SDS011;67068;52.116;4.440;2023-11-19T05:54:35;7.75;;;1.60;;
77872;SDS011;67068;52.116;4.440;2023-11-19T05:57:04;7.95;;;1.42;;
77872;SDS011;67068;52.116;4.440;2023-11-19T05:59:29;7.00;;;1.02;;
77872;SDS011;67068;52.116;4.440;2023-11-19T06:01:55;6.28;;;1.40;;
77872;SDS011;67068;52.116;4.440;2023-11-19T06:04:20;8.93;;;1.50;;
77872;SDS011;67068;52.116;4.440;2023-11-19T06:06:45;9.55;;;1.55;;
77872;SDS011;67068;52.116;4.440;2023-11-19T06:09:11;6.70;;;1.40;;
77872;SDS011;67068;52.116;4.440;2023-11-19T06:11:37;5.30;;;1.17;;
77872;SDS011;67068;52.116;4.440;2023-11-19T06:14:03;7.33;;;1.00;;
77872;SDS011;67068;52.116;4.440;2023-11-19T06:16:30;6.82;;;1.10;;
77872;SDS011;67068;52.116;4.440;2023-11-19T06:18:55;6.97;;;1.30;;
77872;SDS011;67068;52.116;4.440;2023-11-19T06:21:21;8.33;;;1.30;;
77872;SDS011;67068;52.116;4.440;2023-11-19T06:23:46;6.00;;;1.20;;
77872;SDS011;67068;52.116;4.440;2023-11-19T06:26:11;7.40;;;1.20;;
77872;SDS011;67068;52.116;4.440;2023-11-19T06:28:36;7.33;;;1.20;;
77872;SDS011;67068;52.116;4.440;2023-11-19T06:31:02;7.10;;;1.37;;
77872;SDS011;67068;52.116;4.440;2023-11-19T06:33:28;6.35;;;1.15;;
77872;SDS011;67068;52.116;4.440;2023-11-19T06:35:53;10.47;;;2.40;;
77872;SDS011;67068;52.116;4.440;2023-11-19T06:38:19;6.47;;;1.40;;
77872;SDS011;67068;52.116;4.440;2023-11-19T06:40:44;6.97;;;1.30;;
77872;SDS011;67068;52.116;4.440;2023-11-19T06:43:10;7.57;;;1.30;;
77872;SDS011;67068;52.116;4.440;2023-11-19T06:45:35;6.33;;;1.20;;
77872;SDS011;67068;52.116;4.440;2023-11-19T06:48:02;7.05;;;1.20;;
77872;SDS011;67068;52.116;4.440;2023-11-19T06:50:29;5.82;;;1.30;;
77872;SDS011;67068;52.116;4.440;2023-11-19T06:52:54;7.38;;;1.35;;
77872;SDS011;67068;52.116;4.440;2023-11-19T06:55:20;8.33;;;1.40;;
77872;SDS011;67068;52.116;4.440;2023-11-19T06:57:45;9.83;;;1.27;;
77872;SDS011;67068;52.116;4.440;2023-11-19T07:00:10;9.40;;;1.33;;
77872;SDS011;67068;52.116;4.440;2023-11-19T07:02:36;6.57;;;1.20;;
77872;SDS011;67068;52.116;4.440;2023-11-19T07:05:01;7.70;;;1.13;;
77872;SDS011;67068;52.116;4.440;2023-11-19T07:07:29;7.43;;;1.40;;
77872;SDS011;67068;52.116;4.440;2023-11-19T07:09:55;7.90;;;1.23;;
77872;SDS011;67068;52.116;4.440;2023-11-19T07:12:20;5.37;;;1.03;;
77872;SDS011;67068;52.116;4.440;2023-11-19T07:14:45;7.43;;;1.00;;
77872;SDS011;67068;52.116;4.440;2023-11-19T07:17:11;4.60;;;0.88;;
77872;SDS011;67068;52.116;4.440;2023-11-19T07:19:37;6.70;;;1.20;;
77872;SDS011;67068;52.116;4.440;2023-11-19T07:22:03;7.53;;;1.45;;
77872;SDS011;67068;52.116;4.440;2023-11-19T07:24:28;6.75;;;1.20;;
77872;SDS011;67068;52.116;4.440;2023-11-19T07:26:54;7.13;;;1.43;;
77872;SDS011;67068;52.116;4.440;2023-11-19T07:29:19;8.48;;;1.80;;
77872;SDS011;67068;52.116;4.440;2023-11-19T07:31:44;7.30;;;1.40;;
77872;SDS011;67068;52.116;4.440;2023-11-19T07:34:10;7.07;;;1.20;;
77872;SDS011;67068;52.116;4.440;2023-11-19T07:36:36;8.18;;;1.30;;
77872;SDS011;67068;52.116;4.440;2023-11-19T07:39:01;5.88;;;1.10;;
77872;SDS011;67068;52.116;4.440;2023-11-19T07:41:27;8.63;;;1.30;;
77872;SDS011;67068;52.116;4.440;2023-11-19T07:43:52;7.15;;;1.17;;
77872;SDS011;67068;52.116;4.440;2023-11-19T07:46:18;8.43;;;1.48;;
77872;SDS011;67068;52.116;4.440;2023-11-19T07:48:44;10.60;;;1.77;;
77872;SDS011;67068;52.116;4.440;2023-11-19T07:51:10;6.53;;;1.13;;
77872;SDS011;67068;52.116;4.440;2023-11-19T07:53:36;8.02;;;1.40;;
77872;SDS011;67068;52.116;4.440;2023-11-19T07:56:03;6.65;;;0.90;;
77872;SDS011;67068;52.116;4.440;2023-11-19T07:58:28;7.78;;;1.38;;
77872;SDS011;67068;52.116;4.440;2023-11-19T08:00:53;7.40;;;1.30;;
77872;SDS011;67068;52.116;4.440;2023-11-19T08:03:19;6.67;;;1.27;;
77872;SDS011;67068;52.116;4.440;2023-11-19T08:05:44;6.20;;;1.10;;
77872;SDS011;67068;52.116;4.440;2023-11-19T08:08:11;7.28;;;1.00;;
77872;SDS011;67068;52.116;4.440;2023-11-19T08:10:36;6.17;;;1.10;;
77872;SDS011;67068;52.116;4.440;2023-11-19T08:13:01;5.47;;;1.07;;
77872;SDS011;67068;52.116;4.440;2023-11-19T08:15:27;9.37;;;1.30;;
77872;SDS011;67068;52.116;4.440;2023-11-19T08:17:52;7.63;;;1.20;;
77872;SDS011;67068;52.116;4.440;2023-11-19T08:20:18;9.48;;;1.35;;
77872;SDS011;67068;52.116;4.440;2023-11-19T08:22:43;10.70;;;1.95;;
77872;SDS011;67068;52.116;4.440;2023-11-19T08:25:09;7.30;;;1.30;;
77872;SDS011;67068;52.116;4.440;2023-11-19T08:27:34;7.77;;;1.20;;
77872;SDS011;67068;52.116;4.440;2023-11-19T08:29:59;5.90;;;1.10;;
77872;SDS011;67068;52.116;4.440;2023-11-19T08:32:25;7.65;;;1.40;;
77872;SDS011;67068;52.116;4.440;2023-11-19T08:34:50;7.95;;;1.35;;
77872;SDS011;67068;52.116;4.440;2023-11-19T08:37:15;11.73;;;1.63;;
77872;SDS011;67068;52.116;4.440;2023-11-19T08:39:43;11.73;;;1.65;;
77872;SDS011;67068;52.116;4.440;2023-11-19T08:42:08;9.47;;;1.47;;
77872;SDS011;67068;52.116;4.440;2023-11-19T08:44:33;11.17;;;1.73;;
77872;SDS011;67068;52.116;4.440;2023-11-19T08:46:58;9.47;;;1.40;;
77872;SDS011;67068;52.116;4.440;2023-11-19T08:49:23;10.77;;;1.40;;
77872;SDS011;67068;52.116;4.440;2023-11-19T08:51:49;10.53;;;1.73;;
77872;SDS011;67068;52.116;4.440;2023-11-19T08:54:14;10.50;;;1.63;;
77872;SDS011;67068;52.116;4.440;2023-11-19T08:56:39;10.53;;;1.77;;
77872;SDS011;67068;52.116;4.440;2023-11-19T08:59:05;12.47;;;1.67;;
77872;SDS011;67068;52.116;4.440;2023-11-19T09:01:30;9.70;;;1.80;;
77872;SDS011;67068;52.116;4.440;2023-11-19T09:03:57;9.10;;;1.33;;
77872;SDS011;67068;52.116;4.440;2023-11-19T09:06:22;8.93;;;1.70;;
77872;SDS011;67068;52.116;4.440;2023-11-19T09:08:47;8.73;;;1.67;;
77872;SDS011;67068;52.116;4.440;2023-11-19T09:11:13;11.47;;;2.00;;
77872;SDS011;67068;52.116;4.440;2023-11-19T09:13:38;8.70;;;1.30;;
77872;SDS011;67068;52.116;4.440;2023-11-19T09:16:03;10.40;;;1.70;;
77872;SDS011;67068;52.116;4.440;2023-11-19T09:18:29;9.25;;;1.63;;
77872;SDS011;67068;52.116;4.440;2023-11-19T09:20:54;7.70;;;1.80;;
77872;SDS011;67068;52.116;4.440;2023-11-19T09:23:20;7.67;;;1.23;;
77872;SDS011;67068;52.116;4.440;2023-11-19T09:25:45;11.68;;;1.75;;
77872;SDS011;67068;52.116;4.440;2023-11-19T09:28:10;9.33;;;1.30;;
77872;SDS011;67068;52.116;4.440;2023-11-19T09:30:35;9.60;;;1.87;;
77872;SDS011;67068;52.116;4.440;2023-11-19T09:33:01;11.33;;;1.33;;
77872;SDS011;67068;52.116;4.440;2023-11-19T09:35:26;10.55;;;1.70;;
77872;SDS011;67068;52.116;4.440;2023-11-19T09:37:51;11.38;;;1.77;;
77872;SDS011;67068;52.116;4.440;2023-11-19T09:40:17;10.70;;;1.93;;
77872;SDS011;67068;52.116;4.440;2023-11-19T09:42:43;8.23;;;1.40;;
77872;SDS011;67068;52.116;4.440;2023-11-19T09:45:13;12.07;;;2.08;;
77872;SDS011;67068;52.116;4.440;2023-11-19T09:47:38;9.50;;;2.03;;
77872;SDS011;67068;52.116;4.440;2023-11-19T09:50:04;9.60;;;1.60;;
77872;SDS011;67068;52.116;4.440;2023-11-19T09:52:30;10.23;;;1.60;;
77872;SDS011;67068;52.116;4.440;2023-11-19T09:54:55;8.95;;;1.38;;
77872;SDS011;67068;52.116;4.440;2023-11-19T09:57:20;8.85;;;1.83;;
77872;SDS011;67068;52.116;4.440;2023-11-19T09:59:46;11.47;;;1.70;;
77872;SDS011;67068;52.116;4.440;2023-11-19T10:02:11;10.73;;;1.58;;
77872;SDS011;67068;52.116;4.440;2023-11-19T10:04:37;8.65;;;1.42;;
77872;SDS011;67068;52.116;4.440;2023-11-19T10:07:03;10.90;;;1.60;;
77872;SDS011;67068;52.116;4.440;2023-11-19T10:09:28;9.52;;;1.80;;
77872;SDS011;67068;52.116;4.440;2023-11-19T10:11:54;9.30;;;1.50;;
77872;SDS011;67068;52.116;4.440;2023-11-19T10:14:20;10.43;;;1.50;;
77872;SDS011;67068;52.116;4.440;2023-11-19T10:16:47;9.70;;;1.60;;
77872;SDS011;67068;52.116;4.440;2023-11-19T10:19:18;7.70;;;1.73;;
77872;SDS011;67068;52.116;4.440;2023-11-19T10:21:44;11.30;;;1.75;;
77872;SDS011;67068;52.116;4.440;2023-11-19T10:24:11;11.32;;;1.70;;
77872;SDS011;67068;52.116;4.440;2023-11-19T10:26:36;10.17;;;1.57;;
77872;SDS011;67068;52.116;4.440;2023-11-19T10:29:02;8.15;;;1.90;;
77872;SDS011;67068;52.116;4.440;2023-11-19T10:31:27;10.60;;;1.47;;
77872;SDS011;67068;52.116;4.440;2023-11-19T10:33:52;16.87;;;2.73;;
77872;SDS011;67068;52.116;4.440;2023-11-19T10:36:17;9.15;;;1.58;;
77872;SDS011;67068;52.116;4.440;2023-11-19T10:38:53;10.77;;;1.57;;
77872;SDS011;67068;52.116;4.440;2023-11-19T10:41:28;9.65;;;1.75;;
77872;SDS011;67068;52.116;4.440;2023-11-19T10:43:53;10.63;;;1.90;;
77872;SDS011;67068;52.116;4.440;2023-11-19T10:46:19;9.87;;;1.73;;
77872;SDS011;67068;52.116;4.440;2023-11-19T10:48:48;9.95;;;1.50;;
77872;SDS011;67068;52.116;4.440;2023-11-19T10:51:13;11.37;;;1.70;;
77872;SDS011;67068;52.116;4.440;2023-11-19T10:53:39;12.40;;;2.15;;
77872;SDS011;67068;52.116;4.440;2023-11-19T10:56:06;11.65;;;1.50;;
77872;SDS011;67068;52.116;4.440;2023-11-19T10:58:35;11.73;;;1.67;;
77872;SDS011;67068;52.116;4.440;2023-11-19T11:01:03;8.70;;;1.48;;
77872;SDS011;67068;52.116;4.440;2023-11-19T11:03:36;9.85;;;1.80;;
77872;SDS011;67068;52.116;4.440;2023-11-19T11:06:04;9.93;;;1.88;;
77872;SDS011;67068;52.116;4.440;2023-11-19T11:08:29;9.02;;;1.30;;
77872;SDS011;67068;52.116;4.440;2023-11-19T11:10:55;7.72;;;1.42;;
77872;SDS011;67068;52.116;4.440;2023-11-19T11:13:24;9.98;;;1.60;;
77872;SDS011;67068;52.116;4.440;2023-11-19T11:15:50;8.98;;;1.48;;
77872;SDS011;67068;52.116;4.440;2023-11-19T11:18:16;9.32;;;1.30;;
77872;SDS011;67068;52.116;4.440;2023-11-19T11:20:44;9.65;;;1.33;;
77872;SDS011;67068;52.116;4.440;2023-11-19T11:23:18;11.45;;;1.70;;
77872;SDS011;67068;52.116;4.440;2023-11-19T11:31:08;7.95;;;1.77;;
77872;SDS011;67068;52.116;4.440;2023-11-19T11:33:41;8.70;;;1.65;;
77872;SDS011;67068;52.116;4.440;2023-11-19T11:36:19;8.93;;;1.40;;
77872;SDS011;67068;52.116;4.440;2023-11-19T11:38:46;8.65;;;1.42;;
77872;SDS011;67068;52.116;4.440;2023-11-19T11:41:23;10.35;;;2.00;;
77872;SDS011;67068;52.116;4.440;2023-11-19T11:43:52;8.85;;;1.45;;
77872;SDS011;67068;52.116;4.440;2023-11-19T11:49:04;10.50;;;2.05;;
77872;SDS011;67068;52.116;4.440;2023-11-19T12:00:10;11.18;;;1.63;;
77872;SDS011;67068;52.116;4.440;2023-11-19T12:02:20;10.88;;;1.77;;
77872;SDS011;67068;52.116;4.440;2023-11-19T12:04:47;10.13;;;1.90;;
77872;SDS011;67068;52.116;4.440;2023-11-19T12:07:13;12.57;;;2.08;;
77872;SDS011;67068;52.116;4.440;2023-11-19T12:09:40;10.38;;;2.17;;
77872;SDS011;67068;52.116;4.440;2023-11-19T12:12:17;10.82;;;1.95;;
77872;SDS011;67068;52.116;4.440;2023-11-19T12:19:48;12.13;;;1.95;;
77872;SDS011;67068;52.116;4.440;2023-11-19T12:22:13;11.67;;;2.00;;
77872;SDS011;67068;52.116;4.440;2023-11-19T12:24:39;13.30;;;2.60;;
77872;SDS011;67068;52.116;4.440;2023-11-19T12:27:04;14.90;;;2.97;;
77872;SDS011;67068;52.116;4.440;2023-11-19T12:29:41;11.00;;;1.80;;
77872;SDS011;67068;52.116;4.440;2023-11-19T12:32:06;12.90;;;1.77;;
77872;SDS011;67068;52.116;4.440;2023-11-19T12:34:31;15.20;;;2.23;;
77872;SDS011;67068;52.116;4.440;2023-11-19T12:36:57;13.57;;;2.33;;
77872;SDS011;67068;52.116;4.440;2023-11-19T12:39:22;20.70;;;3.43;;
77872;SDS011;67068;52.116;4.440;2023-11-19T12:41:50;11.83;;;1.83;;
77872;SDS011;67068;52.116;4.440;2023-11-19T12:44:16;11.75;;;2.20;;
77872;SDS011;67068;52.116;4.440;2023-11-19T12:46:41;13.37;;;2.30;;
77872;SDS011;67068;52.116;4.440;2023-11-19T12:49:06;13.90;;;2.20;;
77872;SDS011;67068;52.116;4.440;2023-11-19T12:51:32;12.47;;;1.80;;
77872;SDS011;67068;52.116;4.440;2023-11-19T12:53:58;10.60;;;2.00;;
77872;SDS011;67068;52.116;4.440;2023-11-19T12:56:23;12.40;;;1.87;;
77872;SDS011;67068;52.116;4.440;2023-11-19T12:58:49;12.10;;;1.88;;
77872;SDS011;67068;52.116;4.440;2023-11-19T13:01:15;12.70;;;2.03;;
77872;SDS011;67068;52.116;4.440;2023-11-19T13:03:41;14.13;;;1.88;;
77872;SDS011;67068;52.116;4.440;2023-11-19T13:06:07;12.43;;;2.20;;
77872;SDS011;67068;52.116;4.440;2023-11-19T13:08:48;12.63;;;1.95;;
77872;SDS011;67068;52.116;4.440;2023-11-19T13:11:15;13.27;;;2.17;;
77872;SDS011;67068;52.116;4.440;2023-11-19T13:13:54;12.60;;;2.42;;
77872;SDS011;67068;52.116;4.440;2023-11-19T13:16:19;13.18;;;2.40;;
77872;SDS011;67068;52.116;4.440;2023-11-19T13:18:44;11.43;;;2.20;;
77872;SDS011;67068;52.116;4.440;2023-11-19T13:21:09;14.03;;;1.83;;
77872;SDS011;67068;52.116;4.440;2023-11-19T13:23:35;9.00;;;1.60;;
77872;SDS011;67068;52.116;4.440;2023-11-19T13:26:00;14.90;;;2.60;;
77872;SDS011;67068;52.116;4.440;2023-11-19T13:28:25;7.97;;;1.50;;
77872;SDS011;67068;52.116;4.440;2023-11-19T13:30:51;12.13;;;1.83;;
77872;SDS011;67068;52.116;4.440;2023-11-19T13:33:17;10.32;;;1.60;;
77872;SDS011;67068;52.116;4.440;2023-11-19T13:35:42;9.13;;;1.30;;
77872;SDS011;67068;52.116;4.440;2023-11-19T13:38:08;9.43;;;2.10;;
77872;SDS011;67068;52.116;4.440;2023-11-19T13:40:34;14.25;;;2.35;;
77872;SDS011;67068;52.116;4.440;2023-11-19T13:42:59;9.63;;;1.80;;
77872;SDS011;67068;52.116;4.440;2023-11-19T13:45:24;7.67;;;1.40;;
77872;SDS011;67068;52.116;4.440;2023-11-19T13:47:49;10.90;;;2.03;;
77872;SDS011;67068;52.116;4.440;2023-11-19T13:50:16;10.73;;;1.60;;
77872;SDS011;67068;52.116;4.440;2023-11-19T13:52:42;10.73;;;1.55;;
77872;SDS011;67068;52.116;4.440;2023-11-19T13:55:08;12.20;;;1.70;;
77872;SDS011;67068;52.116;4.440;2023-11-19T13:57:37;8.38;;;1.30;;
77872;SDS011;67068;52.116;4.440;2023-11-19T14:00:03;8.10;;;1.45;;
77872;SDS011;67068;52.116;4.440;2023-11-19T14:02:31;8.77;;;1.38;;
77872;SDS011;67068;52.116;4.440;2023-11-19T14:04:56;9.87;;;1.53;;
77872;SDS011;67068;52.116;4.440;2023-11-19T14:07:21;10.73;;;1.90;;
77872;SDS011;67068;52.116;4.440;2023-11-19T14:09:47;8.07;;;1.60;;
77872;SDS011;67068;52.116;4.440;2023-11-19T14:12:12;8.80;;;1.73;;
77872;SDS011;67068;52.116;4.440;2023-11-19T14:14:38;9.60;;;1.52;;
77872;SDS011;67068;52.116;4.440;2023-11-19T14:17:04;10.07;;;1.60;;
77872;SDS011;67068;52.116;4.440;2023-11-19T14:19:29;10.27;;;1.57;;
77872;SDS011;67068;52.116;4.440;2023-11-19T14:21:54;8.73;;;1.50;;
77872;SDS011;67068;52.116;4.440;2023-11-19T14:24:20;8.93;;;1.63;;
77872;SDS011;67068;52.116;4.440;2023-11-19T14:26:48;8.47;;;1.50;;
77872;SDS011;67068;52.116;4.440;2023-11-19T14:29:15;11.88;;;1.58;;
77872;SDS011;67068;52.116;4.440;2023-11-19T14:31:40;10.30;;;1.85;;
77872;SDS011;67068;52.116;4.440;2023-11-19T14:34:05;12.38;;;1.60;;
77872;SDS011;67068;52.116;4.440;2023-11-19T14:36:31;9.60;;;1.40;;
77872;SDS011;67068;52.116;4.440;2023-11-19T14:38:56;11.30;;;1.83;;
77872;SDS011;67068;52.116;4.440;2023-11-19T14:41:23;9.52;;;1.63;;
77872;SDS011;67068;52.116;4.440;2023-11-19T14:43:48;10.40;;;1.60;;
77872;SDS011;67068;52.116;4.440;2023-11-19T14:46:14;5.93;;;1.00;;
77872;SDS011;67068;52.116;4.440;2023-11-19T14:48:39;9.33;;;1.60;;
77872;SDS011;67068;52.116;4.440;2023-11-19T14:51:04;7.87;;;1.20;;
77872;SDS011;67068;52.116;4.440;2023-11-19T14:53:30;9.95;;;1.80;;
77872;SDS011;67068;52.116;4.440;2023-11-19T14:55:55;9.37;;;1.40;;
77872;SDS011;67068;52.116;4.440;2023-11-19T14:58:20;11.90;;;2.00;;
77872;SDS011;67068;52.116;4.440;2023-11-19T15:00:45;11.47;;;1.70;;
77872;SDS011;67068;52.116;4.440;2023-11-19T15:03:11;11.93;;;1.40;;
77872;SDS011;67068;52.116;4.440;2023-11-19T15:05:37;10.10;;;1.52;;